Time;durP1;ratioP1;P1;durP2;ratioP2;P2;SDS_P1;SDS_P2;PMS_P1;PMS_P2;Temp;Humidity;BMP_temperature;BMP_pressure;BME280_temperature;BME280_humidity;BME280_pressure;Samples;Min_cycle;Max_cycle;Signal;HPM_P1;HPM_P2
2021/05/27 00:00:06;;;;;;;3.33;2.00;;;7.40;99.90;;;;;;4192649;28;20492;-73
2021/05/27 00:02:07;;;;;;;2.67;2.20;;;7.40;99.90;;;;;;4192367;28;20472;-73
2021/05/27 00:04:08;;;;;;;3.67;2.37;;;7.40;99.90;;;;;;4193648;28;20766;-73
2021/05/27 00:06:10;;;;;;;2.93;2.00;;;7.40;99.90;;;;;;4189110;28;20954;-73
2021/05/27 00:08:12;;;;;;;3.50;2.27;;;7.40;99.90;;;;;;4193087;28;20463;-73
2021/05/27 00:10:15;;;;;;;4.40;2.20;;;7.40;99.90;;;;;;4192452;28;20477;-73
2021/05/27 00:12:16;;;;;;;4.40;2.33;;;7.40;99.90;;;;;;4188245;28;20961;-73
2021/05/27 00:14:18;;;;;;;4.07;2.43;;;7.40;99.90;;;;;;4182258;28;20977;-73
2021/05/27 00:16:19;;;;;;;4.87;2.53;;;7.40;99.90;;;;;;4193331;28;20465;-73
2021/05/27 00:18:20;;;;;;;3.87;2.40;;;7.40;99.90;;;;;;4186986;28;20945;-72
2021/05/27 00:20:22;;;;;;;3.77;2.30;;;7.40;99.90;;;;;;4183648;28;20492;-73
2021/05/27 00:22:25;;;;;;;2.17;1.73;;;7.30;99.90;;;;;;4189080;28;20485;-73
2021/05/27 00:24:26;;;;;;;4.70;2.23;;;7.30;99.90;;;;;;4188563;28;20598;-73
2021/05/27 00:26:27;;;;;;;3.17;2.30;;;7.30;99.90;;;;;;4189376;28;20492;-73
2021/05/27 00:28:28;;;;;;;3.90;2.30;;;7.30;99.90;;;;;;4191702;28;20463;-73
2021/05/27 00:30:30;;;;;;;3.03;2.27;;;7.30;99.90;;;;;;4195570;28;20497;-73
2021/05/27 00:32:31;;;;;;;3.33;2.20;;;7.30;99.90;;;;;;4196184;28;20452;-73
2021/05/27 00:34:32;;;;;;;3.47;2.50;;;7.30;99.90;;;;;;4193613;28;20483;-73
2021/05/27 00:36:34;;;;;;;3.20;2.33;;;7.30;99.90;;;;;;4196047;28;20829;-73
2021/05/27 00:38:36;;;;;;;4.47;2.60;;;7.30;99.90;;;;;;4184437;28;20496;-73
2021/05/27 00:40:37;;;;;;;2.90;2.33;;;7.30;99.90;;;;;;4196405;28;20487;-73
2021/05/27 00:42:39;;;;;;;3.53;2.50;;;7.30;99.90;;;;;;4188432;28;20464;-73
2021/05/27 00:44:40;;;;;;;3.90;2.80;;;7.30;99.90;;;;;;4191952;28;20493;-73
2021/05/27 00:46:42;;;;;;;3.27;2.53;;;7.30;99.90;;;;;;4193760;28;20479;-73
2021/05/27 00:48:59;;;;;;;3.23;2.60;;;7.40;99.90;;;;;;4188784;28;20483;-73
2021/05/27 00:51:00;;;;;;;4.20;2.47;;;7.40;99.90;;;;;;4191530;28;21435;-73
2021/05/27 00:53:01;;;;;;;3.90;3.00;;;7.40;99.90;;;;;;4186866;28;20474;-73
2021/05/27 00:55:08;;;;;;;7.33;3.10;;;7.40;99.90;;;;;;4193520;28;20526;-73
2021/05/27 00:57:18;;;;;;;5.43;3.00;;;7.50;99.90;;;;;;4189429;28;21027;-72
2021/05/27 00:59:20;;;;;;;5.97;3.23;;;7.40;99.90;;;;;;4193662;28;20895;-73
2021/05/27 01:01:22;;;;;;;5.10;3.03;;;7.40;99.90;;;;;;4196088;28;20510;-73
2021/05/27 01:03:23;;;;;;;6.20;3.30;;;7.40;99.90;;;;;;4190700;28;20491;-73
2021/05/27 01:05:25;;;;;;;3.80;3.17;;;7.40;99.90;;;;;;4188648;28;20506;-73
2021/05/27 01:07:26;;;;;;;4.63;3.40;;;7.40;99.90;;;;;;4182801;28;20474;-72
2021/05/27 01:09:27;;;;;;;4.87;3.53;;;7.40;99.90;;;;;;4190994;28;20476;-72
2021/05/27 01:11:29;;;;;;;4.63;3.40;;;7.40;99.90;;;;;;4186239;28;20477;-73
2021/05/27 01:13:32;;;;;;;4.83;3.30;;;7.50;99.90;;;;;;4192182;28;20506;-72
2021/05/27 01:15:34;;;;;;;4.80;4.10;;;7.50;99.90;;;;;;4195647;28;20475;-72
2021/05/27 01:17:37;;;;;;;4.90;3.87;;;7.50;99.90;;;;;;4191354;28;20484;-72
2021/05/27 01:19:38;;;;;;;4.87;3.80;;;7.50;99.90;;;;;;4190073;28;20555;-73
2021/05/27 01:21:44;;;;;;;4.90;3.80;;;7.50;99.90;;;;;;4190656;28;20860;-73
2021/05/27 01:23:45;;;;;;;5.67;4.20;;;7.50;99.90;;;;;;4208914;22;20503;-75
2021/05/27 01:25:48;;;;;;;6.13;4.03;;;7.60;99.90;;;;;;4196663;28;20452;-74
2021/05/27 01:27:50;;;;;;;5.87;4.10;;;7.60;99.90;;;;;;4190980;28;20525;-74
2021/05/27 01:29:52;;;;;;;7.20;4.03;;;7.60;99.90;;;;;;4183216;28;20957;-75
2021/05/27 01:31:53;;;;;;;6.67;4.03;;;7.60;99.90;;;;;;4192080;28;20962;-74
2021/05/27 01:33:54;;;;;;;6.53;4.20;;;7.60;99.90;;;;;;4185578;28;20562;-74
2021/05/27 01:35:56;;;;;;;5.60;4.27;;;7.60;99.90;;;;;;4187539;28;20451;-75
2021/05/27 01:37:58;;;;;;;6.87;4.33;;;7.60;99.90;;;;;;4189002;28;20470;-75
2021/05/27 01:40:01;;;;;;;7.30;4.27;;;7.70;99.90;;;;;;4185340;28;20498;-75
2021/05/27 01:42:02;;;;;;;7.33;4.83;;;7.70;99.90;;;;;;4188099;28;20474;-75
2021/05/27 01:44:04;;;;;;;6.20;4.50;;;7.70;99.90;;;;;;4188328;28;20511;-75
2021/05/27 01:46:05;;;;;;;6.47;4.60;;;7.70;99.90;;;;;;4181429;28;20989;-75
2021/05/27 01:48:08;;;;;;;6.93;4.67;;;7.70;99.90;;;;;;4187724;28;20481;-75
2021/05/27 01:50:11;;;;;;;6.90;4.43;;;7.70;99.90;;;;;;4191414;28;20462;-75
2021/05/27 01:52:12;;;;;;;6.20;4.20;;;7.70;99.90;;;;;;4185399;28;20467;-75
2021/05/27 01:54:15;;;;;;;5.23;4.20;;;7.70;99.90;;;;;;4182689;28;20492;-74
2021/05/27 01:56:16;;;;;;;9.27;4.60;;;7.70;99.90;;;;;;4186193;28;20460;-75
2021/05/27 01:58:18;;;;;;;6.00;4.40;;;7.80;99.90;;;;;;4192949;28;20492;-75
2021/05/27 02:00:20;;;;;;;7.70;4.33;;;7.80;99.90;;;;;;4186896;28;21634;-75
2021/05/27 02:02:21;;;;;;;8.03;4.67;;;7.80;99.90;;;;;;4179326;28;20460;-75
2021/05/27 02:04:23;;;;;;;6.57;4.70;;;7.80;99.90;;;;;;4183645;28;20538;-75
2021/05/27 02:06:24;;;;;;;8.70;4.40;;;7.80;99.90;;;;;;4194507;28;20943;-75
2021/05/27 02:08:26;;;;;;;5.73;4.40;;;7.80;99.90;;;;;;4189026;28;20482;-75
2021/05/27 02:10:28;;;;;;;6.20;4.60;;;7.80;99.90;;;;;;4189640;28;20486;-74
2021/05/27 02:12:29;;;;;;;8.77;5.30;;;7.80;99.90;;;;;;4184501;28;20488;-75
2021/05/27 02:14:30;;;;;;;7.83;5.30;;;7.90;99.90;;;;;;4184971;28;20971;-75
2021/05/27 02:16:32;;;;;;;5.47;4.30;;;7.90;99.90;;;;;;4180212;28;20822;-75
2021/05/27 02:18:33;;;;;;;5.67;4.60;;;7.90;99.90;;;;;;4183926;28;20473;-75
2021/05/27 02:20:34;;;;;;;8.47;4.80;;;7.90;99.90;;;;;;4178094;28;20541;-75
2021/05/27 02:22:36;;;;;;;6.37;4.87;;;8.10;99.90;;;;;;4172304;28;20476;-74
2021/05/27 02:24:37;;;;;;;7.33;4.70;;;7.90;99.90;;;;;;4184707;28;20491;-75
2021/05/27 02:26:39;;;;;;;8.97;5.30;;;7.90;99.90;;;;;;4184019;28;20863;-75
2021/05/27 02:28:41;;;;;;;8.53;5.97;;;7.90;99.90;;;;;;4186666;28;20473;-75
2021/05/27 02:30:42;;;;;;;7.87;4.73;;;7.90;99.90;;;;;;4184078;28;20462;-75
2021/05/27 02:32:43;;;;;;;6.47;4.90;;;8.00;99.90;;;;;;4188905;28;20925;-75
2021/05/27 02:34:45;;;;;;;7.30;5.10;;;8.00;99.90;;;;;;4192303;28;20507;-75
2021/05/27 02:36:47;;;;;;;8.40;4.83;;;8.00;99.90;;;;;;4186978;28;20466;-75
2021/05/27 02:38:48;;;;;;;7.23;4.90;;;8.00;99.90;;;;;;4186575;28;20462;-75
2021/05/27 02:40:49;;;;;;;5.43;4.47;;;8.10;99.90;;;;;;4189622;28;20551;-75
2021/05/27 02:42:51;;;;;;;6.93;4.63;;;8.10;99.90;;;;;;4187782;28;20475;-74
2021/05/27 02:44:53;;;;;;;10.63;5.40;;;8.10;99.90;;;;;;4192948;28;20497;-75
2021/05/27 02:46:54;;;;;;;6.53;4.97;;;8.10;99.90;;;;;;4182214;28;20976;-75
2021/05/27 02:48:55;;;;;;;7.50;4.87;;;8.10;99.90;;;;;;4186523;28;20586;-75
2021/05/27 02:50:58;;;;;;;10.77;4.90;;;8.10;99.90;;;;;;4189155;28;20536;-75
2021/05/27 02:52:59;;;;;;;5.30;4.30;;;8.10;99.90;;;;;;4184602;28;20919;-75
2021/05/27 02:55:00;;;;;;;7.80;4.97;;;8.10;99.90;;;;;;4177987;28;20989;-75
2021/05/27 02:57:02;;;;;;;6.90;4.30;;;8.10;99.90;;;;;;4190483;28;20475;-75
2021/05/27 02:59:05;;;;;;;8.90;4.67;;;8.10;99.90;;;;;;4186492;28;20956;-75
2021/05/27 03:01:06;;;;;;;6.23;4.70;;;8.10;99.90;;;;;;4188678;28;20572;-75
2021/05/27 03:03:08;;;;;;;6.70;5.07;;;8.10;99.90;;;;;;4178939;28;20852;-74
2021/05/27 03:05:10;;;;;;;7.53;4.57;;;8.10;99.90;;;;;;4186005;28;20863;-75
2021/05/27 03:07:11;;;;;;;5.93;4.67;;;8.20;99.90;;;;;;4184333;28;20851;-75
2021/05/27 03:09:13;;;;;;;7.10;4.87;;;8.20;99.90;;;;;;4182368;28;20479;-75
2021/05/27 03:11:14;;;;;;;6.33;4.90;;;8.20;99.90;;;;;;4174929;28;20463;-74
2021/05/27 03:13:16;;;;;;;6.20;4.80;;;8.20;99.90;;;;;;4185087;28;20467;-75
2021/05/27 03:15:18;;;;;;;7.13;4.67;;;8.20;99.90;;;;;;4189157;28;20489;-74
2021/05/27 03:17:19;;;;;;;9.20;4.93;;;8.20;99.90;;;;;;4194289;28;20477;-75
2021/05/27 03:19:20;;;;;;;5.53;4.43;;;8.20;99.90;;;;;;4181401;28;20484;-75
2021/05/27 03:21:22;;;;;;;7.53;4.93;;;8.20;99.90;;;;;;4180923;28;20549;-75
2021/05/27 03:23:23;;;;;;;7.17;4.90;;;8.20;99.90;;;;;;4185285;28;20464;-75
2021/05/27 03:25:24;;;;;;;7.60;5.00;;;8.20;99.90;;;;;;4194045;28;20459;-75
2021/05/27 03:27:26;;;;;;;8.60;4.50;;;8.20;99.90;;;;;;4181563;28;20475;-75
2021/05/27 03:29:27;;;;;;;7.40;5.03;;;8.20;99.90;;;;;;4189429;28;20479;-75
2021/05/27 03:31:29;;;;;;;7.70;5.10;;;8.20;99.90;;;;;;4189292;28;20471;-75
2021/05/27 03:33:30;;;;;;;7.43;4.97;;;8.20;99.90;;;;;;4184726;28;20483;-74
2021/05/27 03:35:32;;;;;;;6.67;4.90;;;8.20;99.90;;;;;;4181602;28;20466;-75
2021/05/27 03:37:33;;;;;;;6.37;4.80;;;8.20;99.90;;;;;;4177207;28;20487;-74
2021/05/27 03:39:34;;;;;;;7.80;4.70;;;8.20;99.90;;;;;;4186732;28;20478;-74
2021/05/27 03:41:35;;;;;;;6.20;4.37;;;8.20;99.90;;;;;;4186901;28;20524;-75
2021/05/27 03:43:37;;;;;;;7.27;5.07;;;8.20;99.90;;;;;;4182668;28;20554;-75
2021/05/27 03:45:38;;;;;;;7.27;5.37;;;8.20;99.90;;;;;;4178587;28;20476;-75
2021/05/27 03:47:40;;;;;;;6.40;4.93;;;8.20;99.90;;;;;;4178077;28;20953;-75
2021/05/27 03:49:41;;;;;;;7.30;4.97;;;8.20;99.90;;;;;;4179677;28;20464;-74
2021/05/27 03:51:42;;;;;;;7.70;5.03;;;8.30;99.90;;;;;;4187409;28;20460;-75
2021/05/27 03:53:44;;;;;;;8.10;5.30;;;8.30;99.90;;;;;;4182606;28;20501;-75
2021/05/27 03:55:45;;;;;;;12.93;5.40;;;8.40;99.90;;;;;;4164207;28;20485;-75
2021/05/27 03:57:48;;;;;;;6.37;4.20;;;8.30;99.90;;;;;;4162363;28;20448;-75
2021/05/27 04:02:08;;;;;;;6.53;4.20;;;8.40;99.90;;;;;;4183434;28;20918;-75
2021/05/27 04:08:49;;;;;;;7.90;4.60;;;8.40;99.90;;;;;;4185682;28;20454;-75
2021/05/27 04:10:50;;;;;;;7.17;4.47;;;8.50;99.90;;;;;;4192401;28;20533;-75
2021/05/27 04:12:52;;;;;;;7.47;4.27;;;8.50;99.90;;;;;;4184587;28;20465;-75
2021/05/27 04:17:13;;;;;;;7.53;4.80;;;8.60;99.90;;;;;;4178466;28;20467;-74
2021/05/27 04:19:16;;;;;;;10.17;4.83;;;8.60;99.90;;;;;;4176547;28;20469;-75
2021/05/27 04:21:18;;;;;;;8.33;5.40;;;8.60;99.90;;;;;;4180883;28;20492;-74
2021/05/27 04:23:34;;;;;;;7.47;5.07;;;8.60;99.90;;;;;;4179951;28;20467;-75
2021/05/27 04:25:35;;;;;;;7.27;4.63;;;8.60;99.90;;;;;;4180881;28;20473;-74
2021/05/27 04:27:36;;;;;;;7.60;4.47;;;8.70;99.90;;;;;;4180279;28;20456;-74
2021/05/27 04:29:37;;;;;;;7.90;4.67;;;8.70;99.90;;;;;;4191109;28;20474;-74
2021/05/27 04:31:39;;;;;;;9.93;5.27;;;8.70;99.90;;;;;;4188840;28;20867;-75
2021/05/27 04:33:50;;;;;;;9.47;4.97;;;8.80;99.90;;;;;;4179004;28;20525;-75
2021/05/27 04:35:52;;;;;;;7.50;5.13;;;8.80;99.90;;;;;;4187819;28;20474;-76
2021/05/27 04:37:55;;;;;;;8.40;5.30;;;8.90;99.90;;;;;;4185907;28;20982;-74
2021/05/27 04:39:56;;;;;;;6.40;4.47;;;8.90;99.90;;;;;;4181053;28;21167;-75
2021/05/27 04:41:57;;;;;;;7.67;4.90;;;8.90;99.90;;;;;;4183655;28;20478;-74
2021/05/27 04:43:59;;;;;;;7.23;5.10;;;9.00;99.90;;;;;;4189562;28;20491;-74
2021/05/27 04:46:00;;;;;;;9.53;5.10;;;9.00;99.90;;;;;;4186606;28;20464;-74
2021/05/27 04:48:04;;;;;;;6.50;4.43;;;9.00;99.90;;;;;;4187168;28;20484;-75
2021/05/27 04:50:07;;;;;;;6.73;4.87;;;9.10;99.90;;;;;;4184002;28;20961;-75
2021/05/27 04:52:09;;;;;;;7.33;5.03;;;9.10;99.90;;;;;;4188699;28;20467;-74
2021/05/27 04:54:10;;;;;;;8.30;5.30;;;9.10;99.90;;;;;;4185086;28;20488;-74
2021/05/27 04:56:13;;;;;;;10.10;4.87;;;9.20;99.90;;;;;;4187461;28;20471;-74
2021/05/27 04:58:15;;;;;;;8.03;4.93;;;9.20;99.90;;;;;;4184713;28;20464;-74
2021/05/27 05:00:19;;;;;;;9.00;4.50;;;9.20;99.90;;;;;;4190743;28;20492;-74
2021/05/27 05:02:20;;;;;;;12.20;5.37;;;9.20;99.90;;;;;;4189896;28;20850;-74
2021/05/27 05:04:21;;;;;;;8.23;5.07;;;9.30;99.90;;;;;;4184433;28;20496;-75
2021/05/27 05:06:22;;;;;;;8.13;5.17;;;9.30;99.90;;;;;;4178713;28;20463;-74
2021/05/27 05:08:25;;;;;;;7.47;4.90;;;9.40;99.90;;;;;;4185037;28;20469;-74
2021/05/27 05:10:27;;;;;;;9.80;5.23;;;9.40;99.90;;;;;;4184830;28;20465;-75
2021/05/27 05:12:29;;;;;;;7.77;5.27;;;9.50;99.90;;;;;;4183638;28;20469;-74
2021/05/27 05:14:30;;;;;;;6.37;4.67;;;9.50;99.90;;;;;;4183071;28;20904;-74
2021/05/27 05:16:31;;;;;;;11.70;5.07;;;9.50;99.90;;;;;;4180659;28;20538;-74
2021/05/27 05:18:32;;;;;;;8.33;5.30;;;9.60;99.90;;;;;;4186535;28;20464;-75
2021/05/27 05:20:35;;;;;;;8.60;4.77;;;9.60;99.90;;;;;;4185628;28;20869;-74
2021/05/27 05:22:37;;;;;;;7.23;5.30;;;9.70;99.90;;;;;;4186105;28;20495;-75
2021/05/27 05:24:39;;;;;;;7.20;4.80;;;9.70;99.90;;;;;;4193089;28;21080;-74
2021/05/27 05:26:40;;;;;;;9.27;4.70;;;9.70;99.90;;;;;;4190405;28;20476;-74
2021/05/27 05:28:41;;;;;;;9.40;5.23;;;9.80;99.90;;;;;;4194263;28;20964;-75
2021/05/27 05:30:44;;;;;;;8.00;4.70;;;9.80;99.90;;;;;;4186548;28;20649;-75
2021/05/27 05:32:46;;;;;;;9.87;5.07;;;9.80;99.90;;;;;;4176554;28;20470;-74
2021/05/27 05:34:48;;;;;;;8.33;4.90;;;9.80;99.90;;;;;;4194946;28;20490;-75
2021/05/27 05:36:49;;;;;;;9.83;4.70;;;9.90;99.90;;;;;;4186880;28;20522;-74
2021/05/27 05:38:50;;;;;;;7.53;4.90;;;9.90;99.90;;;;;;4185363;28;20464;-74
2021/05/27 05:40:52;;;;;;;7.00;4.40;;;9.90;99.90;;;;;;4181099;28;20985;-75
2021/05/27 05:42:55;;;;;;;11.20;5.03;;;9.90;99.90;;;;;;4183522;28;20462;-75
2021/05/27 05:44:57;;;;;;;8.37;5.13;;;10.00;99.90;;;;;;4192605;28;20577;-73
2021/05/27 05:46:58;;;;;;;7.33;5.07;;;10.00;99.90;;;;;;4181317;28;20571;-75
2021/05/27 05:48:59;;;;;;;6.23;4.80;;;10.10;99.90;;;;;;4183298;28;20502;-75
2021/05/27 05:51:01;;;;;;;9.00;5.00;;;10.10;99.90;;;;;;4183007;28;20495;-75
2021/05/27 05:53:02;;;;;;;9.30;4.30;;;10.10;99.90;;;;;;4184209;28;20555;-75
2021/05/27 05:55:05;;;;;;;7.03;4.67;;;10.10;99.90;;;;;;4182035;28;20493;-75
2021/05/27 05:57:07;;;;;;;6.40;4.97;;;10.10;99.90;;;;;;4175591;28;20576;-75
2021/05/27 05:59:08;;;;;;;8.00;4.97;;;10.20;99.90;;;;;;4178591;28;20660;-75
2021/05/27 06:01:10;;;;;;;6.67;4.90;;;10.20;99.90;;;;;;4181295;28;20461;-75
2021/05/27 06:03:11;;;;;;;6.73;4.13;;;10.30;99.90;;;;;;4184283;28;20206;-75
2021/05/27 06:05:13;;;;;;;6.67;4.50;;;10.30;99.90;;;;;;4182179;28;20682;-75
2021/05/27 06:07:14;;;;;;;6.83;4.47;;;10.30;99.90;;;;;;4180466;28;20217;-75
2021/05/27 06:09:16;;;;;;;6.93;4.30;;;10.40;99.90;;;;;;4181245;28;20206;-76
2021/05/27 06:11:18;;;;;;;5.13;3.90;;;10.40;99.90;;;;;;4189112;28;20729;-76
2021/05/27 06:13:21;;;;;;;8.60;4.13;;;10.40;99.90;;;;;;4183629;28;20214;-76
2021/05/27 06:15:22;;;;;;;10.67;4.17;;;10.40;99.90;;;;;;4180950;28;20272;-76
2021/05/27 06:17:23;;;;;;;5.43;4.07;;;10.40;99.90;;;;;;4180697;28;20220;-76
2021/05/27 06:19:24;;;;;;;8.43;3.77;;;10.50;99.90;;;;;;4182047;28;20850;-76
2021/05/27 06:21:26;;;;;;;5.13;3.80;;;10.40;99.90;;;;;;4181435;28;20230;-76
2021/05/27 06:23:27;;;;;;;4.77;3.87;;;10.50;99.90;;;;;;4182465;28;20609;-76
2021/05/27 06:25:28;;;;;;;10.73;3.83;;;10.50;99.90;;;;;;4176617;28;20648;-75
2021/05/27 06:27:30;;;;;;;5.13;3.60;;;10.50;99.90;;;;;;4170427;28;20214;-80
2021/05/27 06:29:32;;;;;;;7.30;3.40;;;10.50;99.90;;;;;;4175733;28;20221;-74
2021/05/27 06:31:33;;;;;;;31.40;15.40;;;10.60;99.90;;;;;;4178934;28;20209;-74
2021/05/27 06:33:36;;;;;;;44.57;23.17;;;10.60;99.90;;;;;;4174067;28;20261;-75
2021/05/27 06:35:37;;;;;;;11.23;5.90;;;10.70;99.90;;;;;;4168618;28;20593;-75
2021/05/27 06:37:41;;;;;;;5.80;4.20;;;10.70;99.90;;;;;;4175598;28;20210;-74
2021/05/27 06:39:42;;;;;;;6.43;3.40;;;10.80;99.90;;;;;;4172916;28;20219;-76
2021/05/27 06:41:44;;;;;;;4.67;3.20;;;10.90;99.90;;;;;;4175173;28;20696;-75
2021/05/27 06:43:45;;;;;;;5.03;3.07;;;10.90;99.90;;;;;;4169558;28;20238;-75
2021/05/27 06:45:47;;;;;;;4.77;2.90;;;10.90;99.90;;;;;;4172920;28;20210;-75
2021/05/27 06:47:49;;;;;;;3.63;2.60;;;10.90;99.90;;;;;;4173502;28;20619;-75
2021/05/27 06:49:50;;;;;;;4.27;2.90;;;11.00;99.90;;;;;;4175039;28;20214;-75
2021/05/27 06:51:55;;;;;;;5.53;3.40;;;11.00;99.90;;;;;;4172723;28;20494;-75
2021/05/27 06:53:57;;;;;;;4.57;2.90;;;11.00;99.90;;;;;;4171466;28;20238;-75
2021/05/27 06:55:58;;;;;;;4.53;3.17;;;11.00;99.90;;;;;;4173648;28;20241;-75
2021/05/27 06:57:59;;;;;;;3.20;2.60;;;11.10;99.90;;;;;;4173333;28;20214;-75
2021/05/27 07:00:01;;;;;;;3.83;3.17;;;11.10;99.90;;;;;;4173597;28;20209;-75
2021/05/27 07:02:03;;;;;;;4.53;3.07;;;11.10;99.90;;;;;;4172300;28;20604;-75
2021/05/27 07:04:04;;;;;;;5.40;2.63;;;11.10;99.90;;;;;;4170563;28;20245;-75
2021/05/27 07:06:06;;;;;;;4.73;2.93;;;11.10;99.90;;;;;;4167897;28;20581;-75
2021/05/27 07:08:07;;;;;;;3.53;2.60;;;11.10;99.90;;;;;;4163076;28;21856;-75
2021/05/27 07:10:10;;;;;;;5.17;3.30;;;11.20;99.90;;;;;;4171642;28;20217;-75
2021/05/27 07:12:11;;;;;;;6.77;3.17;;;11.20;99.90;;;;;;4170686;28;20272;-75
2021/05/27 07:14:13;;;;;;;5.67;3.30;;;11.20;99.90;;;;;;4169306;28;20226;-74
2021/05/27 07:16:14;;;;;;;3.33;2.93;;;11.10;99.90;;;;;;4171135;28;20218;-75
2021/05/27 07:18:16;;;;;;;3.67;2.80;;;11.10;99.90;;;;;;4164910;28;20207;-75
2021/05/27 07:20:19;;;;;;;4.63;3.03;;;11.20;99.90;;;;;;4168509;28;20231;-76
2021/05/27 07:22:21;;;;;;;5.00;2.83;;;11.10;99.90;;;;;;4172954;28;20268;-75
2021/05/27 07:24:22;;;;;;;6.27;2.80;;;11.20;99.90;;;;;;4204532;22;20241;-72
2021/05/27 07:26:23;;;;;;;3.67;2.83;;;11.10;99.90;;;;;;4183876;28;20215;-72
2021/05/27 07:28:24;;;;;;;4.47;2.60;;;11.20;99.90;;;;;;4184305;28;20487;-72
2021/05/27 07:30:27;;;;;;;3.93;2.87;;;11.20;99.90;;;;;;4188599;28;20577;-72
2021/05/27 07:32:29;;;;;;;3.60;2.70;;;11.30;99.90;;;;;;4188594;28;20940;-72
2021/05/27 07:34:31;;;;;;;5.50;3.30;;;11.30;99.90;;;;;;4179720;28;20226;-72
2021/05/27 07:36:32;;;;;;;4.93;2.97;;;11.40;99.90;;;;;;4184900;28;20210;-72
2021/05/27 07:38:34;;;;;;;5.37;3.17;;;11.40;99.90;;;;;;4186083;28;20244;-72
2021/05/27 07:40:35;;;;;;;4.50;2.77;;;11.40;99.90;;;;;;4187504;28;20267;-73
2021/05/27 07:42:37;;;;;;;5.27;2.57;;;11.40;99.90;;;;;;4187358;28;20537;-72
2021/05/27 07:44:38;;;;;;;4.77;3.10;;;11.50;99.90;;;;;;4187790;28;20283;-73
2021/05/27 07:46:39;;;;;;;2.90;2.60;;;11.50;99.90;;;;;;4189738;28;20288;-72
2021/05/27 07:48:40;;;;;;;3.87;2.60;;;11.50;99.90;;;;;;4186460;28;20592;-72
2021/05/27 07:50:43;;;;;;;4.60;2.70;;;11.50;99.90;;;;;;4182032;28;20661;-72
2021/05/27 07:52:46;;;;;;;4.87;2.70;;;11.50;99.90;;;;;;4186603;28;20221;-72
2021/05/27 07:54:48;;;;;;;7.03;2.80;;;11.50;99.90;;;;;;4187581;28;22536;-72
2021/05/27 07:56:50;;;;;;;4.17;2.70;;;11.40;99.90;;;;;;4183069;28;20309;-73
2021/05/27 07:58:51;;;;;;;2.33;1.80;;;11.30;99.90;;;;;;4186075;28;20205;-72
2021/05/27 08:00:52;;;;;;;1.93;0.93;;;11.10;99.90;;;;;;4189502;28;20229;-73
2021/05/27 08:02:53;;;;;;;0.70;0.53;;;10.90;99.90;;;;;;4185733;28;20483;-73
2021/05/27 08:04:55;;;;;;;1.70;0.80;;;10.50;99.90;;;;;;4191481;28;20241;-73
2021/05/27 08:06:57;;;;;;;0.60;0.50;;;10.20;99.90;;;;;;4186937;28;20495;-72
2021/05/27 08:08:58;;;;;;;0.50;0.50;;;9.90;99.90;;;;;;4186944;28;20487;-72
2021/05/27 08:10:59;;;;;;;0.50;0.50;;;9.70;99.90;;;;;;4191324;28;20448;-73
2021/05/27 08:13:00;;;;;;;1.03;0.70;;;9.60;99.90;;;;;;4190737;28;20459;-73
2021/05/27 08:15:05;;;;;;;0.60;0.50;;;9.40;99.90;;;;;;4189153;28;21113;-72
2021/05/27 08:17:06;;;;;;;0.50;0.50;;;9.30;99.90;;;;;;4188056;28;20475;-72
2021/05/27 08:19:07;;;;;;;0.57;0.50;;;9.20;99.90;;;;;;4189509;28;20471;-72
2021/05/27 08:21:09;;;;;;;1.47;0.80;;;9.10;99.90;;;;;;4189052;28;21002;-73
2021/05/27 08:23:11;;;;;;;0.90;0.50;;;9.00;99.90;;;;;;4180342;28;20505;-73
2021/05/27 08:25:12;;;;;;;1.00;0.70;;;8.90;99.90;;;;;;4189613;28;20950;-72
2021/05/27 08:27:13;;;;;;;1.10;0.80;;;8.90;99.90;;;;;;4183265;28;20476;-73
2021/05/27 08:29:15;;;;;;;3.23;0.60;;;8.90;99.90;;;;;;4181172;28;20459;-73
2021/05/27 08:31:19;;;;;;;1.77;0.70;;;8.80;99.90;;;;;;4189033;28;20470;-72
2021/05/27 08:33:21;;;;;;;0.80;0.70;;;8.80;99.90;;;;;;4187245;28;20471;-73
2021/05/27 08:35:22;;;;;;;0.53;0.53;;;8.80;99.90;;;;;;4188032;28;20914;-73
2021/05/27 08:37:24;;;;;;;1.87;0.60;;;8.80;99.90;;;;;;4183440;28;20475;-73
2021/05/27 08:39:26;;;;;;;2.93;1.77;;;8.80;99.90;;;;;;4183917;28;20467;-72
2021/05/27 08:41:27;;;;;;;2.10;1.43;;;8.70;99.90;;;;;;4183768;28;20540;-75
2021/05/27 08:43:28;;;;;;;35.47;16.83;;;8.70;99.90;;;;;;4189071;28;21010;-72
2021/05/27 08:45:33;;;;;;;14.67;6.70;;;8.70;99.90;;;;;;4190289;28;20557;-73
2021/05/27 08:47:34;;;;;;;4.93;2.50;;;8.80;99.90;;;;;;4188695;28;20471;-73
2021/05/27 08:49:37;;;;;;;3.93;1.53;;;8.80;99.90;;;;;;4188028;28;20540;-73
2021/05/27 08:51:38;;;;;;;0.80;0.80;;;8.80;99.90;;;;;;4183885;28;20468;-73
2021/05/27 08:53:40;;;;;;;1.30;0.80;;;8.80;99.90;;;;;;4186204;28;20529;-71
2021/05/27 08:55:43;;;;;;;1.80;1.20;;;8.80;99.90;;;;;;4190165;28;20497;-73
2021/05/27 08:57:44;;;;;;;1.27;0.90;;;8.80;99.90;;;;;;4185952;28;20479;-71
2021/05/27 08:59:45;;;;;;;1.53;0.87;;;8.90;99.90;;;;;;4185841;28;20472;-73
2021/05/27 09:02:00;;;;;;;2.17;1.00;;;8.90;99.90;;;;;;4185007;28;20495;-73
2021/05/27 09:04:02;;;;;;;1.83;1.03;;;8.90;99.90;;;;;;4186744;28;20510;-74
2021/05/27 09:06:04;;;;;;;1.00;0.90;;;8.90;99.90;;;;;;4185243;28;20861;-73
2021/05/27 09:08:08;;;;;;;1.37;0.97;;;9.00;99.90;;;;;;4185355;28;20475;-73
2021/05/27 09:10:10;;;;;;;1.90;1.10;;;9.00;99.90;;;;;;4186791;28;20467;-73
2021/05/27 09:12:28;;;;;;;1.23;1.00;;;9.00;99.90;;;;;;4190112;28;20486;-73
2021/05/27 09:14:40;;;;;;;1.00;0.90;;;9.00;99.90;;;;;;4188495;28;20490;-73
2021/05/27 09:16:59;;;;;;;1.27;0.90;;;9.00;99.90;;;;;;4186840;28;20575;-72
2021/05/27 09:19:12;;;;;;;1.40;1.00;;;9.00;99.90;;;;;;4186367;28;20824;-73
2021/05/27 09:21:15;;;;;;;1.30;0.83;;;9.00;99.90;;;;;;4189712;28;20498;-73
2021/05/27 09:23:20;;;;;;;1.73;1.00;;;9.00;99.90;;;;;;4191536;28;21238;-73
2021/05/27 09:25:26;;;;;;;1.13;1.00;;;9.00;99.90;;;;;;4188361;28;21071;-73
2021/05/27 09:27:44;;;;;;;4.10;1.53;;;9.00;99.90;;;;;;4189760;28;20884;-73
2021/05/27 09:29:46;;;;;;;2.13;1.30;;;9.00;99.90;;;;;;4190205;28;20501;-73
2021/05/27 09:32:01;;;;;;;1.67;1.20;;;9.10;99.90;;;;;;4191128;28;20452;-73
2021/05/27 09:34:04;;;;;;;1.67;1.00;;;9.10;99.90;;;;;;4193178;28;20491;-73
2021/05/27 09:36:07;;;;;;;1.47;1.07;;;9.20;99.90;;;;;;4187483;28;20479;-74
2021/05/27 09:38:09;;;;;;;18.63;6.80;;;9.20;99.90;;;;;;4181431;28;20472;-74
2021/05/27 09:40:11;;;;;;;24.70;11.80;;;9.30;99.90;;;;;;4185279;28;20528;-72
2021/05/27 09:42:12;;;;;;;8.77;3.53;;;9.30;99.90;;;;;;4177776;28;20468;-73
2021/05/27 09:44:18;;;;;;;4.23;2.30;;;9.30;99.90;;;;;;4181979;28;20490;-72
2021/05/27 09:46:20;;;;;;;2.73;1.83;;;9.40;99.90;;;;;;4176686;28;20453;-73
2021/05/27 09:48:24;;;;;;;1.97;1.70;;;9.40;99.90;;;;;;4179158;28;21164;-72
2021/05/27 09:50:32;;;;;;;2.30;1.80;;;9.40;99.90;;;;;;4178737;28;20956;-72
2021/05/27 09:52:41;;;;;;;3.53;1.97;;;9.40;99.90;;;;;;4178289;28;20482;-71
2021/05/27 09:54:54;;;;;;;3.20;2.57;;;9.50;99.90;;;;;;4178696;28;21429;-73
2021/05/27 09:56:55;;;;;;;2.67;2.10;;;9.50;99.90;;;;;;4177989;28;21317;-72
2021/05/27 09:58:56;;;;;;;3.67;2.53;;;9.60;99.90;;;;;;4177349;28;20479;-72
2021/05/27 10:01:06;;;;;;;4.03;2.43;;;9.70;99.90;;;;;;4180248;28;20491;-72
2021/05/27 10:03:26;;;;;;;4.20;2.27;;;9.80;99.90;;;;;;4179969;28;20912;-73
2021/05/27 10:05:27;;;;;;;2.77;1.97;;;9.90;99.90;;;;;;4180692;28;20473;-72
2021/05/27 10:07:38;;;;;;;3.83;2.43;;;10.00;99.90;;;;;;4177638;28;21078;-73
2021/05/27 10:09:39;;;;;;;3.40;1.53;;;10.10;99.90;;;;;;4179185;28;20461;-73
2021/05/27 10:11:40;;;;;;;2.23;1.10;;;10.20;99.90;;;;;;4179332;28;20601;-73
2021/05/27 10:13:42;;;;;;;2.20;0.80;;;10.20;99.90;;;;;;4178913;28;20464;-74
2021/05/27 10:15:45;;;;;;;1.83;0.90;;;10.10;99.90;;;;;;4180415;28;20214;-74
2021/05/27 10:17:47;;;;;;;1.13;0.80;;;10.10;99.90;;;;;;4177886;28;21258;-76
2021/05/27 10:19:49;;;;;;;0.90;0.70;;;10.20;99.90;;;;;;4185172;28;20452;-74
2021/05/27 10:21:51;;;;;;;2.23;1.00;;;10.30;99.90;;;;;;4183457;28;20229;-72
2021/05/27 10:23:53;;;;;;;0.93;0.60;;;10.30;99.90;;;;;;4189566;28;20235;-72
2021/05/27 10:25:56;;;;;;;1.00;0.60;;;10.40;99.90;;;;;;4188151;28;20222;-73
2021/05/27 10:28:00;;;;;;;1.10;0.70;;;10.50;99.90;;;;;;4186939;28;20213;-71
2021/05/27 10:30:04;;;;;;;2.47;0.90;;;10.40;99.90;;;;;;4187614;28;20213;-71
2021/05/27 10:32:06;;;;;;;1.30;0.80;;;10.40;99.90;;;;;;4187897;28;20239;-71
2021/05/27 10:34:09;;;;;;;1.10;0.80;;;10.40;99.90;;;;;;4184153;28;20481;-71
2021/05/27 10:36:11;;;;;;;2.30;0.87;;;10.30;99.90;;;;;;4184102;28;20264;-71
2021/05/27 10:38:14;;;;;;;0.93;0.57;;;10.20;99.90;;;;;;4182615;28;20212;-72
2021/05/27 10:40:41;;;;;;;1.63;0.73;;;10.10;99.90;;;;;;4186388;28;20464;-73
2021/05/27 10:43:07;;;;;;;2.13;0.90;;;10.10;99.90;;;;;;4185966;28;20213;-73
2021/05/27 10:45:10;;;;;;;1.53;0.70;;;10.10;99.90;;;;;;4172517;28;20574;-70
2021/05/27 10:47:12;;;;;;;38.27;21.27;;;10.20;99.90;;;;;;4187532;28;20965;-73
2021/05/27 10:49:50;;;;;;;63.43;32.03;;;10.10;99.90;;;;;;4186145;28;20666;-71
2021/05/27 10:51:53;;;;;;;9.33;4.27;;;10.20;99.90;;;;;;4187839;28;20828;-71